createdAt,value
2018-01-31T06:50:06.600Z,22.90
2018-01-31T06:52:34.520Z,22.70
2018-01-31T06:55:02.751Z,21.60
2018-01-31T06:57:30.846Z,21.60
2018-01-31T06:59:58.696Z,21.90
2018-01-31T07:02:26.650Z,22.10
2018-01-31T07:04:54.859Z,22.30
2018-01-31T07:07:23.715Z,22.50
2018-01-31T07:09:51.780Z,22.50
2018-01-31T07:12:20.806Z,22.60
2018-01-31T07:14:48.798Z,22.50
2018-01-31T07:17:17.145Z,22.60
2018-01-31T07:19:45.655Z,22.70
2018-01-31T07:22:14.111Z,22.90
2018-01-31T07:24:42.256Z,22.90
2018-01-31T07:27:10.478Z,23.00
2018-01-31T07:29:38.466Z,23.00
2018-01-31T07:32:06.299Z,23.10
2018-01-31T07:34:34.251Z,23.10
2018-01-31T07:37:02.253Z,23.10
2018-01-31T07:39:30.166Z,23.20
2018-01-31T07:41:58.897Z,23.20
2018-01-31T07:44:26.945Z,23.20
2018-01-31T07:46:55.151Z,23.20
2018-01-31T07:49:23.156Z,23.20
2018-01-31T07:51:51.236Z,23.20
2018-01-31T07:54:20.081Z,23.10
2018-01-31T07:56:48.108Z,23.10
2018-01-31T07:59:16.121Z,23.00
2018-01-31T08:01:43.974Z,23.00
2018-01-31T08:04:11.903Z,22.90
2018-01-31T08:06:40.074Z,23.10
2018-01-31T08:09:09.128Z,23.30
2018-01-31T08:11:37.084Z,23.30
2018-01-31T08:14:05.099Z,23.30
2018-01-31T08:16:33.490Z,23.40
2018-01-31T08:19:01.414Z,23.40
2018-01-31T08:21:29.234Z,23.40
2018-01-31T08:23:57.281Z,23.40
2018-01-31T08:26:25.249Z,23.40
2018-01-31T08:28:53.321Z,23.30
2018-01-31T08:31:21.108Z,23.20
2018-01-31T08:33:49.240Z,23.20
2018-01-31T08:36:17.180Z,23.10
2018-01-31T08:38:45.290Z,23.00
2018-01-31T08:41:13.261Z,23.00
2018-01-31T08:43:41.003Z,23.00
2018-01-31T08:46:09.045Z,23.10
2018-01-31T08:48:36.926Z,23.10
2018-01-31T08:51:05.146Z,23.10
2018-01-31T08:53:33.023Z,23.10
2018-01-31T08:56:01.165Z,23.00
2018-01-31T08:58:29.314Z,23.00
2018-01-31T09:00:58.301Z,23.00
2018-01-31T09:03:26.196Z,22.90
2018-01-31T09:05:54.282Z,23.00
2018-01-31T09:08:22.396Z,22.90
2018-01-31T09:10:51.007Z,22.80
2018-01-31T09:13:18.833Z,22.80
2018-01-31T09:15:46.582Z,22.80
2018-01-31T09:18:14.617Z,23.00
2018-01-31T09:20:42.737Z,23.00
2018-01-31T09:23:10.833Z,23.10
2018-01-31T09:25:39.676Z,23.20
2018-01-31T09:28:07.748Z,23.20
2018-01-31T09:30:35.753Z,23.20
2018-01-31T09:33:03.677Z,23.20
2018-01-31T09:35:31.640Z,23.20
2018-01-31T09:37:59.619Z,23.20
2018-01-31T09:40:27.621Z,23.20
2018-01-31T09:42:55.800Z,23.30
2018-01-31T09:45:23.714Z,23.30
2018-01-31T09:47:51.704Z,23.20
2018-01-31T09:50:19.554Z,23.20
2018-01-31T09:52:47.542Z,23.30
2018-01-31T09:55:15.651Z,23.20
2018-01-31T09:57:43.473Z,23.20
2018-01-31T10:00:11.299Z,23.30
2018-01-31T10:02:39.156Z,23.30
2018-01-31T10:05:07.022Z,23.30
2018-01-31T10:07:34.884Z,23.30
2018-01-31T10:10:03.019Z,23.30
2018-01-31T10:12:32.100Z,23.30
2018-01-31T10:15:00.024Z,23.30
2018-01-31T10:17:27.851Z,23.30
2018-01-31T10:19:55.658Z,23.20
2018-01-31T10:22:24.018Z,23.20
2018-01-31T10:24:51.931Z,23.10
2018-01-31T10:27:19.798Z,23.10
2018-01-31T10:29:48.693Z,23.00
2018-01-31T10:32:16.567Z,23.10
2018-01-31T10:34:44.374Z,23.30
2018-01-31T10:37:12.500Z,23.40
2018-01-31T10:39:40.558Z,23.40
2018-01-31T10:42:08.630Z,23.50
2018-01-31T10:44:36.675Z,23.50
2018-01-31T10:47:04.503Z,23.40
2018-01-31T10:49:32.525Z,23.40
2018-01-31T10:52:00.448Z,23.40
2018-01-31T10:57:29.144Z,23.30
2018-01-31T10:59:24.777Z,23.30
2018-01-31T11:01:52.769Z,23.30
2018-01-31T11:47:05.572Z,23.20
2018-01-31T11:49:35.405Z,23.20
2018-01-31T11:52:03.238Z,23.20
2018-01-31T11:54:31.167Z,23.20
2018-01-31T11:56:59.038Z,23.20
2018-01-31T11:59:26.896Z,23.00
2018-01-31T12:01:54.879Z,23.00
2018-01-31T12:04:22.777Z,23.10
2018-01-31T12:06:50.679Z,23.30
2018-01-31T12:09:18.544Z,23.50
2018-01-31T12:11:46.403Z,23.50
2018-01-31T12:14:14.327Z,23.50
2018-01-31T12:16:42.334Z,23.50
2018-01-31T12:19:10.094Z,23.50
2018-01-31T12:28:10.956Z,23.30
2018-01-31T12:31:10.315Z,23.30
2018-01-31T12:39:31.995Z,23.30
2018-01-31T12:42:14.055Z,23.40
2018-01-31T12:53:48.457Z,23.30
2018-01-31T12:56:17.080Z,23.30
2018-01-31T12:58:45.244Z,23.30
2018-01-31T13:01:14.678Z,23.30
2018-01-31T13:03:42.663Z,23.30
2018-01-31T13:06:10.725Z,23.30
2018-01-31T13:08:38.781Z,23.40
2018-01-31T13:11:07.172Z,23.40
2018-01-31T13:13:36.734Z,23.40
2018-01-31T13:16:04.970Z,23.40
2018-01-31T13:18:33.670Z,23.40
2018-01-31T13:21:02.579Z,23.30
2018-01-31T13:23:30.560Z,23.30
2018-01-31T13:25:58.814Z,23.20
2018-01-31T13:28:26.865Z,23.20
2018-01-31T13:30:55.026Z,23.20
2018-01-31T13:33:23.936Z,23.30
2018-01-31T13:35:52.762Z,23.40
2018-01-31T13:38:20.842Z,23.40
2018-01-31T13:40:49.084Z,23.40
2018-01-31T13:43:16.992Z,23.40
2018-01-31T13:45:46.108Z,23.40
2018-01-31T13:48:14.802Z,23.40
2018-01-31T13:50:43.762Z,23.50
2018-01-31T13:53:11.916Z,23.50
2018-01-31T13:55:40.037Z,23.40
2018-01-31T13:58:09.122Z,23.40
2018-01-31T14:00:37.411Z,23.50
2018-01-31T14:03:05.674Z,23.40
2018-01-31T14:05:34.043Z,23.40
2018-01-31T14:08:01.952Z,23.50
2018-01-31T14:10:30.307Z,23.40
2018-01-31T14:13:00.410Z,23.50
2018-01-31T14:15:28.459Z,23.50
2018-01-31T14:17:56.542Z,23.50
2018-01-31T14:20:24.754Z,23.50
2018-01-31T14:22:52.902Z,23.50
2018-01-31T14:25:22.019Z,23.50
2018-01-31T14:27:50.254Z,23.50
2018-01-31T14:30:19.250Z,23.40
2018-01-31T14:32:47.560Z,23.40
2018-01-31T14:35:16.111Z,23.40
2018-01-31T14:37:44.077Z,23.50
2018-01-31T14:40:12.274Z,23.50
2018-01-31T14:42:40.718Z,23.40
2018-01-31T14:45:09.203Z,23.50
2018-01-31T14:47:37.532Z,23.50
2018-01-31T14:50:05.554Z,23.50
2018-01-31T14:52:33.631Z,23.50
2018-01-31T14:55:02.735Z,23.50
2018-01-31T14:57:31.963Z,23.50
2018-01-31T15:00:00.204Z,23.50
2018-01-31T15:02:28.520Z,23.50
2018-01-31T15:04:56.825Z,23.60
2018-01-31T15:07:25.214Z,23.60
2018-01-31T15:09:54.499Z,23.60
2018-01-31T15:12:23.775Z,23.60
2018-01-31T15:14:52.022Z,23.60
2018-01-31T15:17:20.005Z,23.60
2018-01-31T15:19:48.046Z,23.60
2018-01-31T15:22:15.998Z,23.60
2018-01-31T15:24:45.827Z,23.60
2018-01-31T15:27:14.378Z,23.60
2018-01-31T15:29:42.441Z,23.60
2018-01-31T15:32:10.887Z,23.60
2018-01-31T15:34:39.439Z,23.60
2018-01-31T15:37:07.576Z,23.60
2018-01-31T15:39:37.292Z,23.60
2018-01-31T15:42:05.828Z,23.60
2018-01-31T15:44:34.150Z,23.60
2018-01-31T15:47:03.386Z,23.60
2018-01-31T15:49:31.330Z,23.50
2018-01-31T15:52:00.132Z,23.50
2018-01-31T15:54:28.397Z,23.50
2018-01-31T15:56:57.478Z,23.50
2018-01-31T15:59:26.471Z,23.60
2018-01-31T16:01:54.698Z,23.60
2018-01-31T16:04:22.762Z,23.70
2018-01-31T16:06:51.058Z,23.70
2018-01-31T16:09:19.108Z,23.60
2018-01-31T16:11:47.405Z,23.60
2018-01-31T16:14:15.779Z,23.60
2018-01-31T16:16:43.748Z,23.50
2018-01-31T16:19:11.720Z,23.40
2018-01-31T16:21:40.100Z,23.40
